createdAt,value
2019-04-28T00:01:46.959Z,7.6
2019-04-28T00:06:49.065Z,7.6
2019-04-28T00:11:51.887Z,7.6
2019-04-28T00:16:54.088Z,7.5
2019-04-28T00:21:56.629Z,7.4
2019-04-28T00:26:58.882Z,7.5
2019-04-28T00:32:01.661Z,7.4
2019-04-28T00:37:03.805Z,7.3
2019-04-28T00:42:06.254Z,7.3
2019-04-28T00:47:08.714Z,7.1
2019-04-28T00:52:11.255Z,7
2019-04-28T00:57:13.615Z,6.9
2019-04-28T01:02:16.457Z,6.8
2019-04-28T01:07:18.700Z,6.8
2019-04-28T01:12:21.417Z,6.7
2019-04-28T01:17:23.488Z,6.5
2019-04-28T01:22:25.957Z,6.3
2019-04-28T01:27:30.161Z,6.2
2019-04-28T01:32:31.183Z,6
2019-04-28T01:37:33.274Z,6
2019-04-28T01:42:35.743Z,6
2019-04-28T01:47:38.209Z,6.1
2019-04-28T01:52:40.699Z,6.2
2019-04-28T01:57:43.161Z,6.4
2019-04-28T02:02:45.943Z,6.5
2019-04-28T02:07:48.118Z,6.7
2019-04-28T02:12:50.651Z,6.8
2019-04-28T02:17:52.956Z,6.8
2019-04-28T02:22:55.444Z,6.8
2019-04-28T02:27:59.482Z,6.8
2019-04-28T02:33:01.537Z,6.8
2019-04-28T02:38:02.804Z,6.8
2019-04-28T02:43:05.398Z,6.9
2019-04-28T02:48:07.735Z,6.9
2019-04-28T02:53:10.904Z,7
2019-04-28T02:58:13.406Z,7.1
2019-04-28T03:03:15.684Z,7.1
2019-04-28T03:08:17.556Z,7.1
2019-04-28T03:13:20.819Z,7.2
2019-04-28T03:18:22.510Z,7.3
2019-04-28T03:23:24.949Z,7.4
2019-04-28T03:28:27.536Z,7.4
2019-04-28T03:33:33.400Z,7.3
2019-04-28T03:38:32.287Z,7.3
2019-04-28T03:43:34.878Z,7.2
2019-04-28T03:48:37.307Z,7.1
2019-04-28T03:53:40.927Z,7.1
2019-04-28T03:58:42.341Z,7.2
2019-04-28T04:03:45.005Z,7.3
2019-04-28T04:08:47.047Z,7.3
2019-04-28T04:13:51.347Z,7.3
2019-04-28T04:18:53.601Z,7.4
2019-04-28T04:23:54.793Z,7.5
2019-04-28T04:28:56.941Z,7.4
2019-04-28T04:34:00.675Z,7.5
2019-04-28T04:39:02.194Z,7.6
2019-04-28T04:44:04.254Z,7.7
2019-04-28T04:49:06.822Z,7.6
2019-04-28T04:54:10.777Z,7.7
2019-04-28T04:59:11.672Z,7.7
2019-04-28T05:04:14.125Z,7.6
2019-04-28T05:09:16.518Z,7.6
2019-04-28T05:14:19.807Z,7.7
2019-04-28T05:19:21.515Z,7.8
2019-04-28T05:24:23.896Z,7.9
2019-04-28T05:29:27.810Z,8
2019-04-28T05:34:29.717Z,8
2019-04-28T05:39:31.483Z,8.1
2019-04-28T05:44:33.825Z,8.1
2019-04-28T05:49:36.197Z,8.1
2019-04-28T05:54:40.309Z,8.1
2019-04-28T06:04:43.943Z,8.2
2019-04-28T06:09:46.381Z,8.3
2019-04-28T06:14:50.182Z,8.4
2019-04-28T06:19:50.930Z,8.5
2019-04-28T06:24:53.378Z,8.7
2019-04-28T06:29:55.843Z,8.9
2019-04-28T06:34:58.396Z,9
2019-04-28T06:40:00.866Z,9
2019-04-28T06:45:03.224Z,9.1
2019-04-28T06:50:05.842Z,9.2
2019-04-28T06:55:08.127Z,9.2
2019-04-28T07:00:10.636Z,9.3
2019-04-28T07:05:13.400Z,9.3
2019-04-28T07:10:15.519Z,9.4
2019-04-28T07:15:17.951Z,9.9
2019-04-28T07:20:20.447Z,11
2019-04-28T07:25:23.296Z,12.2
2019-04-28T07:30:25.333Z,12.6
2019-04-28T07:35:28.245Z,12.5
2019-04-28T07:40:30.439Z,12.7
2019-04-28T07:45:32.689Z,12.6
2019-04-28T07:50:35.264Z,11.9
2019-04-28T07:55:38.033Z,11.5
2019-04-28T08:00:40.053Z,11.1
2019-04-28T08:05:42.879Z,10.8
2019-04-28T08:10:44.980Z,10.4
2019-04-28T08:15:47.447Z,10.2
2019-04-28T08:20:50.130Z,10.1
2019-04-28T08:25:52.586Z,10.1
2019-04-28T08:30:54.801Z,10.2
2019-04-28T08:35:57.626Z,10.4
2019-04-28T08:40:59.729Z,10.7
2019-04-28T08:46:02.238Z,10.9
2019-04-28T08:51:04.634Z,10.9
2019-04-28T08:56:07.490Z,10.9
2019-04-28T09:01:09.603Z,11.2
2019-04-28T09:06:12.438Z,11.7
2019-04-28T09:11:14.458Z,12.1
2019-04-28T09:16:17.013Z,12
2019-04-28T09:21:19.412Z,11.8
2019-04-28T09:26:22.608Z,11.7
2019-04-28T09:31:24.332Z,11.5
2019-04-28T09:36:27.088Z,11.4
2019-04-28T09:41:29.264Z,11.3
2019-04-28T09:46:31.753Z,11.3
2019-04-28T09:51:34.206Z,11.4
2019-04-28T09:56:36.663Z,11.5
2019-04-28T10:01:39.070Z,11.6
2019-04-28T10:06:42.134Z,11.7
2019-04-28T10:11:43.951Z,12
2019-04-28T10:16:46.421Z,12.7
2019-04-28T10:21:48.908Z,13.4
2019-04-28T10:26:51.374Z,13.3
2019-04-28T10:31:53.809Z,12.4
2019-04-28T10:36:56.598Z,11.9
2019-04-28T10:41:58.739Z,11.6
2019-04-28T10:47:01.162Z,11
2019-04-28T10:52:03.718Z,10.6
2019-04-28T10:57:06.257Z,10.6
2019-04-28T11:02:08.668Z,10.8
2019-04-28T11:07:11.843Z,11.9
2019-04-28T11:12:13.455Z,14.6
2019-04-28T11:17:15.935Z,19.2
2019-04-28T11:22:18.445Z,20.7
2019-04-28T11:27:20.975Z,22.5
2019-04-28T11:32:23.343Z,21.5
2019-04-28T11:37:26.090Z,19.8
2019-04-28T11:42:28.224Z,18.4
2019-04-28T11:47:30.702Z,17.6
2019-04-28T11:52:33.202Z,17.6
2019-04-28T11:57:35.730Z,18.1
2019-04-28T12:02:38.042Z,19.9
2019-04-28T12:07:40.873Z,21.3
2019-04-28T12:12:42.954Z,21.4
2019-04-28T12:17:45.471Z,22.3
2019-04-28T12:22:48.095Z,22.3
2019-04-28T12:27:50.596Z,21.4
2019-04-28T12:32:53.026Z,20.9
2019-04-28T12:37:55.657Z,20.8
2019-04-28T12:42:57.716Z,20.8
2019-04-28T12:48:00.179Z,21
2019-04-28T12:53:02.752Z,21.4
2019-04-28T12:58:05.173Z,21.3
2019-04-28T13:03:07.567Z,20
2019-04-28T13:08:10.394Z,18.2
2019-04-28T13:13:12.478Z,16.8
2019-04-28T13:18:14.930Z,15.8
2019-04-28T13:23:17.480Z,15.1
2019-04-28T13:28:19.855Z,15
2019-04-28T13:38:25.096Z,15.1
2019-04-28T13:43:27.239Z,15.1
2019-04-28T13:48:29.938Z,15.2
2019-04-28T13:53:32.198Z,15.2
2019-04-28T13:58:34.569Z,15.3
2019-04-28T14:03:37.021Z,15.4
2019-04-28T14:08:39.834Z,15.7
2019-04-28T14:13:41.965Z,15.9
2019-04-28T14:18:44.416Z,16.1
2019-04-28T14:23:46.957Z,16.3
2019-04-28T14:28:49.302Z,16.5
2019-04-28T14:33:51.835Z,16.7
2019-04-28T14:38:54.585Z,16.6
2019-04-28T14:43:56.864Z,16.6
2019-04-28T14:48:59.178Z,16.8
2019-04-28T14:54:01.789Z,17
2019-04-28T14:59:04.376Z,17.3
2019-04-28T15:04:06.585Z,17.8
2019-04-28T15:09:09.427Z,17.9
2019-04-28T15:14:11.508Z,17.8
2019-04-28T15:19:13.943Z,17.5
2019-04-28T15:24:16.461Z,17
2019-04-28T15:29:18.815Z,16.4
2019-04-28T15:34:21.319Z,15.7
2019-04-28T15:39:23.794Z,15.3
2019-04-28T15:44:26.177Z,15.1
2019-04-28T15:49:28.736Z,14.8
2019-04-28T15:54:31.306Z,14.7
2019-04-28T15:59:33.670Z,14.6
2019-04-28T16:04:36.015Z,14.7
2019-04-28T16:09:41.015Z,14.8
2019-04-28T16:14:41.061Z,14.8
2019-04-28T16:19:43.399Z,14.9
2019-04-28T16:24:45.962Z,15
2019-04-28T16:29:48.303Z,15.1
2019-04-28T16:34:50.758Z,15.2
2019-04-28T16:39:53.231Z,15.2
2019-04-28T16:44:55.670Z,15.1
2019-04-28T16:49:58.135Z,14.7
2019-04-28T16:55:00.730Z,14.3
2019-04-28T17:00:03.112Z,13.8
2019-04-28T17:05:05.565Z,13.4
2019-04-28T17:10:08.336Z,13.1
2019-04-28T17:15:10.433Z,12.8
2019-04-28T17:20:12.898Z,12.4
2019-04-28T17:25:15.443Z,12.2
2019-04-28T17:30:17.983Z,12
2019-04-28T17:35:20.275Z,11.7
2019-04-28T17:40:23.138Z,11.5
2019-04-28T17:45:25.289Z,11.2
2019-04-28T17:50:27.651Z,11
2019-04-28T17:55:30.350Z,10.8
2019-04-28T18:00:32.546Z,10.6
2019-04-28T18:05:35.040Z,10.4
2019-04-28T18:10:37.835Z,10.3
2019-04-28T18:15:39.924Z,10.2
2019-04-28T18:20:42.469Z,10
2019-04-28T18:25:45.016Z,9.9
2019-04-28T18:30:47.469Z,9.9
2019-04-28T18:35:49.743Z,9.8
2019-04-28T18:40:53.242Z,9.7
2019-04-28T18:45:54.691Z,9.5
2019-04-28T18:50:57.245Z,9.4
2019-04-28T18:55:59.664Z,9.4
2019-04-28T19:01:02.042Z,9.3
2019-04-28T19:06:04.510Z,9.1
2019-04-28T19:11:07.350Z,9
2019-04-28T19:16:09.472Z,8.9
2019-04-28T19:21:11.868Z,8.6
2019-04-28T19:26:14.479Z,8.5
2019-04-28T19:31:16.845Z,8.4
2019-04-28T19:36:19.409Z,8.4
2019-04-28T19:41:22.055Z,8.5
2019-04-28T19:46:24.231Z,8.5
2019-04-28T19:51:31.825Z,8.6
2019-04-28T19:56:29.145Z,8.7
2019-04-28T20:01:31.522Z,8.9
2019-04-28T20:06:34.040Z,8.9
2019-04-28T20:11:36.874Z,9
2019-04-28T20:16:38.924Z,9
2019-04-28T20:21:41.661Z,9
2019-04-28T20:26:43.903Z,8.9
2019-04-28T20:31:46.417Z,8.8
2019-04-28T20:36:48.791Z,8.7
2019-04-28T20:41:51.579Z,8.6
2019-04-28T20:46:53.791Z,8.5
2019-04-28T20:51:56.094Z,8.5
2019-04-28T20:56:58.826Z,8.4
2019-04-28T21:02:01.013Z,8.4
2019-04-28T21:07:03.557Z,8.3
2019-04-28T21:12:06.283Z,8.2
2019-04-28T21:17:08.373Z,8.1
2019-04-28T21:22:10.901Z,8
2019-04-28T21:27:13.378Z,7.9
2019-04-28T21:32:15.760Z,7.8
2019-04-28T21:37:18.652Z,7.6
2019-04-28T21:42:21.021Z,7.5
2019-04-28T21:47:23.118Z,7.4
2019-04-28T21:52:25.603Z,7.4
2019-04-28T21:57:28.174Z,7.4
2019-04-28T22:02:30.481Z,7.4
2019-04-28T22:07:32.983Z,7.3
2019-04-28T22:12:35.532Z,7.3
2019-04-28T22:17:37.892Z,7.4
2019-04-28T22:22:40.376Z,7.4
2019-04-28T22:27:42.989Z,7.5
2019-04-28T22:32:45.327Z,7.4
2019-04-28T22:37:47.701Z,7.5
2019-04-28T22:42:50.556Z,7.5
2019-04-28T22:47:52.621Z,7.6
2019-04-28T22:52:55.155Z,7.8
2019-04-28T22:57:57.586Z,7.9
2019-04-28T23:02:59.982Z,8
2019-04-28T23:08:02.453Z,8.1
2019-04-28T23:13:05.218Z,8.3
2019-04-28T23:18:07.354Z,8.4
2019-04-28T23:23:09.805Z,8.4
2019-04-28T23:28:12.348Z,8.5
2019-04-28T23:33:14.727Z,8.5
2019-04-28T23:38:17.201Z,8.5
2019-04-28T23:43:20.055Z,8.4
2019-04-28T23:48:22.160Z,8.4
2019-04-28T23:53:24.541Z,8.4
2019-04-28T23:58:27.008Z,8.4
